sensor_id;sensor_type;location;lat;lon;timestamp;P1;durP1;ratioP1;P2;durP2;ratioP2
31786;SDS011;18356;52.380;9.820;2022-09-13T00:02:03;6.53;;;3.50;;
31786;SDS011;18356;52.380;9.820;2022-09-13T00:04:30;6.05;;;3.58;;
31786;SDS011;18356;52.380;9.820;2022-09-13T00:06:56;6.20;;;3.75;;
31786;SDS011;18356;52.380;9.820;2022-09-13T00:09:22;7.88;;;3.65;;
31786;SDS011;18356;52.380;9.820;2022-09-13T00:11:48;5.75;;;3.60;;
31786;SDS011;18356;52.380;9.820;2022-09-13T00:14:14;7.10;;;3.80;;
31786;SDS011;18356;52.380;9.820;2022-09-13T00:16:40;6.05;;;3.90;;
31786;SDS011;18356;52.380;9.820;2022-09-13T00:19:06;6.18;;;3.78;;
31786;SDS011;18356;52.380;9.820;2022-09-13T00:21:32;6.78;;;3.78;;
31786;SDS011;18356;52.380;9.820;2022-09-13T00:23:58;6.78;;;3.75;;
31786;SDS011;18356;52.380;9.820;2022-09-13T00:26:25;5.25;;;3.35;;
31786;SDS011;18356;52.380;9.820;2022-09-13T00:28:53;8.02;;;3.72;;
31786;SDS011;18356;52.380;9.820;2022-09-13T00:31:21;7.28;;;4.07;;
31786;SDS011;18356;52.380;9.820;2022-09-13T00:33:48;7.05;;;4.15;;
31786;SDS011;18356;52.380;9.820;2022-09-13T00:36:14;8.32;;;3.88;;
31786;SDS011;18356;52.380;9.820;2022-09-13T00:38:40;6.97;;;3.72;;
31786;SDS011;18356;52.380;9.820;2022-09-13T00:41:10;6.25;;;3.83;;
31786;SDS011;18356;52.380;9.820;2022-09-13T00:43:41;6.00;;;3.85;;
31786;SDS011;18356;52.380;9.820;2022-09-13T00:46:07;6.32;;;3.63;;
31786;SDS011;18356;52.380;9.820;2022-09-13T00:48:33;5.60;;;3.40;;
31786;SDS011;18356;52.380;9.820;2022-09-13T00:51:01;6.65;;;3.70;;
31786;SDS011;18356;52.380;9.820;2022-09-13T00:53:29;6.28;;;4.20;;
31786;SDS011;18356;52.380;9.820;2022-09-13T00:56:04;5.82;;;3.83;;
31786;SDS011;18356;52.380;9.820;2022-09-13T00:58:44;5.10;;;3.47;;
31786;SDS011;18356;52.380;9.820;2022-09-13T01:01:13;6.30;;;3.92;;
31786;SDS011;18356;52.380;9.820;2022-09-13T01:03:40;6.07;;;3.80;;
31786;SDS011;18356;52.380;9.820;2022-09-13T01:06:09;6.65;;;4.35;;
31786;SDS011;18356;52.380;9.820;2022-09-13T01:08:36;7.38;;;3.83;;
31786;SDS011;18356;52.380;9.820;2022-09-13T01:11:06;5.82;;;4.20;;
31786;SDS011;18356;52.380;9.820;2022-09-13T01:13:36;7.00;;;4.10;;
31786;SDS011;18356;52.380;9.820;2022-09-13T01:16:03;6.75;;;3.75;;
31786;SDS011;18356;52.380;9.820;2022-09-13T01:18:31;7.70;;;4.07;;
31786;SDS011;18356;52.380;9.820;2022-09-13T01:26:25;7.07;;;4.10;;
31786;SDS011;18356;52.380;9.820;2022-09-13T01:29:04;6.43;;;3.95;;
31786;SDS011;18356;52.380;9.820;2022-09-13T01:31:36;8.15;;;4.18;;
31786;SDS011;18356;52.380;9.820;2022-09-13T01:39:27;7.32;;;4.18;;
31786;SDS011;18356;52.380;9.820;2022-09-13T01:42:00;6.60;;;4.03;;
31786;SDS011;18356;52.380;9.820;2022-09-13T01:44:35;8.52;;;4.00;;
31786;SDS011;18356;52.380;9.820;2022-09-13T01:57:31;7.78;;;4.22;;
31786;SDS011;18356;52.380;9.820;2022-09-13T02:00:04;5.22;;;3.70;;
31786;SDS011;18356;52.380;9.820;2022-09-13T02:02:37;6.22;;;4.03;;
31786;SDS011;18356;52.380;9.820;2022-09-13T02:05:06;7.22;;;3.70;;
31786;SDS011;18356;52.380;9.820;2022-09-13T02:07:36;6.63;;;3.72;;
31786;SDS011;18356;52.380;9.820;2022-09-13T02:10:05;6.15;;;3.95;;
31786;SDS011;18356;52.380;9.820;2022-09-13T02:12:35;8.20;;;3.92;;
31786;SDS011;18356;52.380;9.820;2022-09-13T02:15:15;5.85;;;4.00;;
31786;SDS011;18356;52.380;9.820;2022-09-13T02:17:45;6.15;;;3.90;;
31786;SDS011;18356;52.380;9.820;2022-09-13T02:20:15;6.25;;;4.10;;
31786;SDS011;18356;52.380;9.820;2022-09-13T02:22:43;6.22;;;4.22;;
31786;SDS011;18356;52.380;9.820;2022-09-13T02:25:15;7.72;;;3.95;;
31786;SDS011;18356;52.380;9.820;2022-09-13T02:27:44;7.70;;;4.38;;
31786;SDS011;18356;52.380;9.820;2022-09-13T02:30:11;5.90;;;4.20;;
31786;SDS011;18356;52.380;9.820;2022-09-13T02:32:57;5.95;;;4.05;;
31786;SDS011;18356;52.380;9.820;2022-09-13T02:35:34;9.05;;;4.32;;
31786;SDS011;18356;52.380;9.820;2022-09-13T02:38:11;7.15;;;4.10;;
31786;SDS011;18356;52.380;9.820;2022-09-13T02:40:45;6.38;;;4.65;;
31786;SDS011;18356;52.380;9.820;2022-09-13T02:43:14;6.55;;;4.38;;
31786;SDS011;18356;52.380;9.820;2022-09-13T02:45:50;7.10;;;4.65;;
31786;SDS011;18356;52.380;9.820;2022-09-13T02:48:43;11.55;;;5.07;;
31786;SDS011;18356;52.380;9.820;2022-09-13T02:51:13;10.68;;;5.28;;
31786;SDS011;18356;52.380;9.820;2022-09-13T02:53:43;9.27;;;5.68;;
31786;SDS011;18356;52.380;9.820;2022-09-13T02:56:33;17.08;;;6.60;;
31786;SDS011;18356;52.380;9.820;2022-09-13T02:59:04;13.68;;;6.05;;
31786;SDS011;18356;52.380;9.820;2022-09-13T03:01:36;11.88;;;6.13;;
31786;SDS011;18356;52.380;9.820;2022-09-13T03:04:03;14.32;;;6.53;;
31786;SDS011;18356;52.380;9.820;2022-09-13T03:06:30;10.25;;;6.05;;
31786;SDS011;18356;52.380;9.820;2022-09-13T03:08:57;12.55;;;6.70;;
31786;SDS011;18356;52.380;9.820;2022-09-13T03:31:44;10.02;;;6.60;;
31786;SDS011;18356;52.380;9.820;2022-09-13T03:36:57;14.55;;;7.63;;
31786;SDS011;18356;52.380;9.820;2022-09-13T03:39:34;11.48;;;6.75;;
31786;SDS011;18356;52.380;9.820;2022-09-13T03:42:04;10.13;;;7.13;;
31786;SDS011;18356;52.380;9.820;2022-09-13T03:44:32;9.88;;;7.30;;
31786;SDS011;18356;52.380;9.820;2022-09-13T03:46:59;10.95;;;7.18;;
31786;SDS011;18356;52.380;9.820;2022-09-13T03:49:26;12.82;;;7.30;;
31786;SDS011;18356;52.380;9.820;2022-09-13T03:51:52;10.40;;;7.43;;
31786;SDS011;18356;52.380;9.820;2022-09-13T03:59:29;16.98;;;8.18;;
31786;SDS011;18356;52.380;9.820;2022-09-13T04:01:56;9.18;;;6.60;;
31786;SDS011;18356;52.380;9.820;2022-09-13T04:04:22;10.80;;;7.25;;
31786;SDS011;18356;52.380;9.820;2022-09-13T04:06:48;10.77;;;7.05;;
31786;SDS011;18356;52.380;9.820;2022-09-13T04:09:14;12.73;;;7.50;;
31786;SDS011;18356;52.380;9.820;2022-09-13T04:11:40;11.98;;;7.25;;
31786;SDS011;18356;52.380;9.820;2022-09-13T04:14:06;11.23;;;6.97;;
31786;SDS011;18356;52.380;9.820;2022-09-13T04:16:32;13.35;;;7.65;;
31786;SDS011;18356;52.380;9.820;2022-09-13T04:18:59;14.32;;;7.55;;
31786;SDS011;18356;52.380;9.820;2022-09-13T04:21:25;12.82;;;7.40;;
31786;SDS011;18356;52.380;9.820;2022-09-13T04:23:52;10.98;;;7.38;;
31786;SDS011;18356;52.380;9.820;2022-09-13T04:26:18;10.23;;;7.70;;
31786;SDS011;18356;52.380;9.820;2022-09-13T04:28:44;17.52;;;7.95;;
31786;SDS011;18356;52.380;9.820;2022-09-13T04:31:10;10.18;;;7.10;;
31786;SDS011;18356;52.380;9.820;2022-09-13T04:33:36;10.75;;;7.57;;
31786;SDS011;18356;52.380;9.820;2022-09-13T04:36:03;13.05;;;8.43;;
31786;SDS011;18356;52.380;9.820;2022-09-13T04:38:29;13.93;;;7.82;;
31786;SDS011;18356;52.380;9.820;2022-09-13T04:40:56;14.38;;;8.10;;
31786;SDS011;18356;52.380;9.820;2022-09-13T04:43:22;10.85;;;7.32;;
31786;SDS011;18356;52.380;9.820;2022-09-13T04:45:48;11.18;;;7.75;;
31786;SDS011;18356;52.380;9.820;2022-09-13T04:48:14;10.48;;;7.60;;
31786;SDS011;18356;52.380;9.820;2022-09-13T04:50:40;12.15;;;7.88;;
31786;SDS011;18356;52.380;9.820;2022-09-13T04:53:07;10.27;;;7.72;;
31786;SDS011;18356;52.380;9.820;2022-09-13T04:55:33;11.38;;;7.68;;
31786;SDS011;18356;52.380;9.820;2022-09-13T04:58:00;11.27;;;7.65;;
31786;SDS011;18356;52.380;9.820;2022-09-13T05:00:28;12.00;;;7.88;;
31786;SDS011;18356;52.380;9.820;2022-09-13T05:02:55;13.38;;;8.23;;
31786;SDS011;18356;52.380;9.820;2022-09-13T05:05:22;10.65;;;7.38;;
31786;SDS011;18356;52.380;9.820;2022-09-13T05:07:50;14.38;;;8.35;;
31786;SDS011;18356;52.380;9.820;2022-09-13T05:10:16;28.83;;;7.35;;
31786;SDS011;18356;52.380;9.820;2022-09-13T05:12:42;14.05;;;7.93;;
31786;SDS011;18356;52.380;9.820;2022-09-13T05:15:08;11.95;;;7.30;;
31786;SDS011;18356;52.380;9.820;2022-09-13T05:17:36;13.48;;;7.88;;
31786;SDS011;18356;52.380;9.820;2022-09-13T05:20:02;9.27;;;6.90;;
31786;SDS011;18356;52.380;9.820;2022-09-13T05:22:33;13.23;;;7.95;;
31786;SDS011;18356;52.380;9.820;2022-09-13T05:24:59;12.80;;;8.02;;
31786;SDS011;18356;52.380;9.820;2022-09-13T05:27:25;11.23;;;7.50;;
31786;SDS011;18356;52.380;9.820;2022-09-13T05:29:51;11.52;;;7.97;;
31786;SDS011;18356;52.380;9.820;2022-09-13T05:32:20;12.15;;;7.40;;
31786;SDS011;18356;52.380;9.820;2022-09-13T05:34:46;10.40;;;7.32;;
31786;SDS011;18356;52.380;9.820;2022-09-13T05:37:12;11.15;;;7.20;;
31786;SDS011;18356;52.380;9.820;2022-09-13T05:39:38;13.65;;;7.82;;
31786;SDS011;18356;52.380;9.820;2022-09-13T05:42:04;9.35;;;7.25;;
31786;SDS011;18356;52.380;9.820;2022-09-13T05:44:30;10.32;;;7.30;;
31786;SDS011;18356;52.380;9.820;2022-09-13T05:46:58;11.70;;;7.60;;
31786;SDS011;18356;52.380;9.820;2022-09-13T05:49:24;11.45;;;7.45;;
31786;SDS011;18356;52.380;9.820;2022-09-13T05:51:50;12.98;;;8.35;;
31786;SDS011;18356;52.380;9.820;2022-09-13T05:54:17;10.40;;;7.43;;
31786;SDS011;18356;52.380;9.820;2022-09-13T05:56:43;9.52;;;6.75;;
31786;SDS011;18356;52.380;9.820;2022-09-13T05:59:10;12.23;;;7.38;;
31786;SDS011;18356;52.380;9.820;2022-09-13T06:01:36;10.90;;;7.60;;
31786;SDS011;18356;52.380;9.820;2022-09-13T06:04:02;11.30;;;7.35;;
31786;SDS011;18356;52.380;9.820;2022-09-13T06:06:28;9.15;;;7.35;;
31786;SDS011;18356;52.380;9.820;2022-09-13T06:08:57;10.60;;;7.10;;
31786;SDS011;18356;52.380;9.820;2022-09-13T06:11:25;10.55;;;7.68;;
31786;SDS011;18356;52.380;9.820;2022-09-13T06:13:52;11.27;;;7.60;;
31786;SDS011;18356;52.380;9.820;2022-09-13T06:16:26;11.18;;;8.40;;
31786;SDS011;18356;52.380;9.820;2022-09-13T06:18:52;11.68;;;7.75;;
31786;SDS011;18356;52.380;9.820;2022-09-13T06:21:20;11.10;;;7.53;;
31786;SDS011;18356;52.380;9.820;2022-09-13T06:23:46;11.65;;;7.70;;
31786;SDS011;18356;52.380;9.820;2022-09-13T06:26:13;10.57;;;7.15;;
31786;SDS011;18356;52.380;9.820;2022-09-13T06:28:40;9.32;;;6.85;;
31786;SDS011;18356;52.380;9.820;2022-09-13T06:31:07;10.68;;;6.90;;
31786;SDS011;18356;52.380;9.820;2022-09-13T06:33:34;12.52;;;6.78;;
31786;SDS011;18356;52.380;9.820;2022-09-13T06:36:04;10.10;;;7.57;;
31786;SDS011;18356;52.380;9.820;2022-09-13T06:38:31;9.30;;;6.68;;
31786;SDS011;18356;52.380;9.820;2022-09-13T06:41:02;11.77;;;7.43;;
31786;SDS011;18356;52.380;9.820;2022-09-13T06:43:28;11.73;;;6.60;;
31786;SDS011;18356;52.380;9.820;2022-09-13T06:45:58;10.13;;;6.75;;
31786;SDS011;18356;52.380;9.820;2022-09-13T06:48:24;9.73;;;6.53;;
31786;SDS011;18356;52.380;9.820;2022-09-13T06:50:51;11.32;;;6.97;;
31786;SDS011;18356;52.380;9.820;2022-09-13T06:53:17;10.93;;;6.78;;
31786;SDS011;18356;52.380;9.820;2022-09-13T06:55:43;10.43;;;6.40;;
31786;SDS011;18356;52.380;9.820;2022-09-13T06:58:09;10.80;;;6.22;;
31786;SDS011;18356;52.380;9.820;2022-09-13T07:00:35;9.77;;;6.10;;
31786;SDS011;18356;52.380;9.820;2022-09-13T07:03:01;9.68;;;6.47;;
31786;SDS011;18356;52.380;9.820;2022-09-13T07:05:27;9.77;;;6.85;;
31786;SDS011;18356;52.380;9.820;2022-09-13T07:07:53;10.48;;;6.70;;
31786;SDS011;18356;52.380;9.820;2022-09-13T07:10:19;10.35;;;6.55;;
31786;SDS011;18356;52.380;9.820;2022-09-13T07:12:45;9.80;;;6.10;;
31786;SDS011;18356;52.380;9.820;2022-09-13T07:15:11;8.05;;;6.32;;
31786;SDS011;18356;52.380;9.820;2022-09-13T07:17:37;10.48;;;6.10;;
31786;SDS011;18356;52.380;9.820;2022-09-13T07:20:04;10.05;;;6.10;;
31786;SDS011;18356;52.380;9.820;2022-09-13T07:22:31;9.80;;;6.07;;
31786;SDS011;18356;52.380;9.820;2022-09-13T07:24:57;9.80;;;6.10;;
31786;SDS011;18356;52.380;9.820;2022-09-13T07:27:24;8.30;;;5.82;;
31786;SDS011;18356;52.380;9.820;2022-09-13T07:29:50;11.02;;;5.95;;
31786;SDS011;18356;52.380;9.820;2022-09-13T07:32:16;10.68;;;6.63;;
31786;SDS011;18356;52.380;9.820;2022-09-13T07:34:44;8.85;;;6.30;;
31786;SDS011;18356;52.380;9.820;2022-09-13T07:37:10;11.10;;;6.93;;
31786;SDS011;18356;52.380;9.820;2022-09-13T07:39:36;9.55;;;7.00;;
31786;SDS011;18356;52.380;9.820;2022-09-13T07:42:02;12.68;;;6.82;;
31786;SDS011;18356;52.380;9.820;2022-09-13T07:44:28;15.65;;;6.88;;
31786;SDS011;18356;52.380;9.820;2022-09-13T07:46:54;10.75;;;7.35;;
31786;SDS011;18356;52.380;9.820;2022-09-13T07:49:20;11.00;;;7.05;;
31786;SDS011;18356;52.380;9.820;2022-09-13T07:51:47;9.82;;;6.63;;
31786;SDS011;18356;52.380;9.820;2022-09-13T07:54:17;7.97;;;6.45;;
31786;SDS011;18356;52.380;9.820;2022-09-13T07:56:43;12.55;;;7.18;;
31786;SDS011;18356;52.380;9.820;2022-09-13T07:59:10;9.43;;;6.47;;
31786;SDS011;18356;52.380;9.820;2022-09-13T08:01:41;12.25;;;6.80;;
31786;SDS011;18356;52.380;9.820;2022-09-13T08:04:08;13.93;;;6.68;;
31786;SDS011;18356;52.380;9.820;2022-09-13T08:06:36;9.98;;;5.93;;
31786;SDS011;18356;52.380;9.820;2022-09-13T08:09:03;8.52;;;6.20;;
31786;SDS011;18356;52.380;9.820;2022-09-13T08:11:30;12.85;;;6.57;;
31786;SDS011;18356;52.380;9.820;2022-09-13T08:13:57;12.88;;;6.00;;
31786;SDS011;18356;52.380;9.820;2022-09-13T08:16:27;11.55;;;6.35;;
31786;SDS011;18356;52.380;9.820;2022-09-13T08:18:54;10.90;;;6.93;;
31786;SDS011;18356;52.380;9.820;2022-09-13T08:21:21;9.75;;;6.75;;
31786;SDS011;18356;52.380;9.820;2022-09-13T08:23:47;14.30;;;6.97;;
31786;SDS011;18356;52.380;9.820;2022-09-13T08:26:14;11.75;;;6.40;;
31786;SDS011;18356;52.380;9.820;2022-09-13T08:28:40;12.40;;;6.80;;
31786;SDS011;18356;52.380;9.820;2022-09-13T08:31:07;9.60;;;6.38;;
31786;SDS011;18356;52.380;9.820;2022-09-13T08:33:34;13.27;;;7.65;;
31786;SDS011;18356;52.380;9.820;2022-09-13T08:36:01;14.00;;;7.47;;
31786;SDS011;18356;52.380;9.820;2022-09-13T08:38:27;12.45;;;7.63;;
31786;SDS011;18356;52.380;9.820;2022-09-13T08:40:57;15.52;;;8.05;;
31786;SDS011;18356;52.380;9.820;2022-09-13T08:45:50;10.77;;;7.80;;
31786;SDS011;18356;52.380;9.820;2022-09-13T08:48:21;11.05;;;7.47;;
31786;SDS011;18356;52.380;9.820;2022-09-13T08:50:48;10.98;;;7.63;;
31786;SDS011;18356;52.380;9.820;2022-09-13T08:53:27;14.13;;;8.20;;
31786;SDS011;18356;52.380;9.820;2022-09-13T08:56:08;16.30;;;7.68;;
31786;SDS011;18356;52.380;9.820;2022-09-13T09:03:54;11.93;;;8.02;;
31786;SDS011;18356;52.380;9.820;2022-09-13T09:06:23;12.48;;;8.00;;
31786;SDS011;18356;52.380;9.820;2022-09-13T09:09:03;11.45;;;8.10;;
31786;SDS011;18356;52.380;9.820;2022-09-13T09:11:32;12.75;;;8.57;;
31786;SDS011;18356;52.380;9.820;2022-09-13T09:16:32;10.63;;;7.25;;
31786;SDS011;18356;52.380;9.820;2022-09-13T09:19:04;17.08;;;8.45;;
31786;SDS011;18356;52.380;9.820;2022-09-13T09:21:31;15.15;;;7.80;;
31786;SDS011;18356;52.380;9.820;2022-09-13T09:23:58;12.52;;;8.18;;
31786;SDS011;18356;52.380;9.820;2022-09-13T09:26:28;11.10;;;7.68;;
31786;SDS011;18356;52.380;9.820;2022-09-13T09:28:58;14.10;;;8.25;;
31786;SDS011;18356;52.380;9.820;2022-09-13T09:31:40;11.18;;;8.00;;
31786;SDS011;18356;52.380;9.820;2022-09-13T09:34:10;13.80;;;7.72;;
31786;SDS011;18356;52.380;9.820;2022-09-13T09:36:39;11.60;;;7.90;;
31786;SDS011;18356;52.380;9.820;2022-09-13T09:39:11;13.25;;;9.50;;
31786;SDS011;18356;52.380;9.820;2022-09-13T09:41:40;15.95;;;9.57;;
31786;SDS011;18356;52.380;9.820;2022-09-13T09:46:39;13.95;;;9.18;;
31786;SDS011;18356;52.380;9.820;2022-09-13T09:49:10;20.48;;;9.25;;
31786;SDS011;18356;52.380;9.820;2022-09-13T09:51:57;14.57;;;9.40;;
31786;SDS011;18356;52.380;9.820;2022-09-13T09:54:24;15.57;;;9.27;;
31786;SDS011;18356;52.380;9.820;2022-09-13T09:56:54;15.68;;;9.38;;
31786;SDS011;18356;52.380;9.820;2022-09-13T09:59:25;16.08;;;10.10;;
31786;SDS011;18356;52.380;9.820;2022-09-13T10:01:52;14.20;;;9.20;;
31786;SDS011;18356;52.380;9.820;2022-09-13T10:04:22;14.45;;;8.45;;
31786;SDS011;18356;52.380;9.820;2022-09-13T10:06:48;15.15;;;9.45;;
31786;SDS011;18356;52.380;9.820;2022-09-13T10:09:16;18.42;;;9.07;;
31786;SDS011;18356;52.380;9.820;2022-09-13T10:11:49;15.93;;;9.65;;
31786;SDS011;18356;52.380;9.820;2022-09-13T10:17:42;15.10;;;9.13;;
31786;SDS011;18356;52.380;9.820;2022-09-13T10:19:54;14.27;;;9.55;;
31786;SDS011;18356;52.380;9.820;2022-09-13T10:22:23;13.77;;;8.80;;
31786;SDS011;18356;52.380;9.820;2022-09-13T10:24:49;18.40;;;8.63;;
31786;SDS011;18356;52.380;9.820;2022-09-13T10:27:26;14.85;;;8.63;;
31786;SDS011;18356;52.380;9.820;2022-09-13T10:29:54;12.20;;;8.50;;
31786;SDS011;18356;52.380;9.820;2022-09-13T10:32:23;13.75;;;8.20;;
31786;SDS011;18356;52.380;9.820;2022-09-13T10:34:49;12.82;;;8.40;;
31786;SDS011;18356;52.380;9.820;2022-09-13T10:37:18;13.27;;;8.80;;
31786;SDS011;18356;52.380;9.820;2022-09-13T10:39:54;11.60;;;7.88;;
31786;SDS011;18356;52.380;9.820;2022-09-13T10:42:21;14.25;;;8.02;;
31786;SDS011;18356;52.380;9.820;2022-09-13T10:44:56;13.45;;;8.35;;
31786;SDS011;18356;52.380;9.820;2022-09-13T10:47:30;17.23;;;9.13;;
31786;SDS011;18356;52.380;9.820;2022-09-13T10:50:19;16.13;;;9.70;;
31786;SDS011;18356;52.380;9.820;2022-09-13T10:52:52;14.35;;;9.35;;
31786;SDS011;18356;52.380;9.820;2022-09-13T10:57:48;15.95;;;10.50;;
31786;SDS011;18356;52.380;9.820;2022-09-13T11:00:27;13.60;;;9.43;;
31786;SDS011;18356;52.380;9.820;2022-09-13T11:08:05;13.02;;;9.82;;
31786;SDS011;18356;52.380;9.820;2022-09-13T11:10:38;19.63;;;10.63;;
31786;SDS011;18356;52.380;9.820;2022-09-13T11:15:48;16.52;;;10.00;;
31786;SDS011;18356;52.380;9.820;2022-09-13T11:18:42;17.40;;;10.48;;
31786;SDS011;18356;52.380;9.820;2022-09-13T11:23:40;16.45;;;11.82;;
31786;SDS011;18356;52.380;9.820;2022-09-13T11:44:23;20.73;;;10.50;;
31786;SDS011;18356;52.380;9.820;2022-09-13T11:49:32;14.68;;;10.07;;
31786;SDS011;18356;52.380;9.820;2022-09-13T11:56:59;15.68;;;10.73;;
31786;SDS011;18356;52.380;9.820;2022-09-13T12:01:56;13.98;;;10.95;;
31786;SDS011;18356;52.380;9.820;2022-09-13T12:04:24;21.52;;;13.50;;
31786;SDS011;18356;52.380;9.820;2022-09-13T12:06:53;16.05;;;12.25;;
31786;SDS011;18356;52.380;9.820;2022-09-13T12:09:21;18.50;;;13.35;;
31786;SDS011;18356;52.380;9.820;2022-09-13T12:12:02;17.73;;;13.65;;
31786;SDS011;18356;52.380;9.820;2022-09-13T12:14:29;20.38;;;13.93;;
31786;SDS011;18356;52.380;9.820;2022-09-13T12:17:01;22.25;;;14.70;;
31786;SDS011;18356;52.380;9.820;2022-09-13T12:19:42;21.15;;;13.30;;
31786;SDS011;18356;52.380;9.820;2022-09-13T12:22:09;20.80;;;13.43;;
31786;SDS011;18356;52.380;9.820;2022-09-13T12:24:44;20.20;;;12.55;;
31786;SDS011;18356;52.380;9.820;2022-09-13T12:30:02;18.50;;;13.65;;
31786;SDS011;18356;52.380;9.820;2022-09-13T12:32:29;18.80;;;12.68;;
31786;SDS011;18356;52.380;9.820;2022-09-13T12:35:02;18.17;;;13.60;;
31786;SDS011;18356;52.380;9.820;2022-09-13T12:48:01;23.48;;;13.80;;
31786;SDS011;18356;52.380;9.820;2022-09-13T12:53:21;20.00;;;14.05;;
31786;SDS011;18356;52.380;9.820;2022-09-13T12:58:25;19.75;;;13.05;;
31786;SDS011;18356;52.380;9.820;2022-09-13T13:03:23;17.08;;;11.85;;
31786;SDS011;18356;52.380;9.820;2022-09-13T13:05:55;16.85;;;9.88;;
31786;SDS011;18356;52.380;9.820;2022-09-13T13:08:30;13.65;;;9.40;;
31786;SDS011;18356;52.380;9.820;2022-09-13T13:11:08;13.05;;;8.68;;
31786;SDS011;18356;52.380;9.820;2022-09-13T13:13:37;10.35;;;7.85;;
31786;SDS011;18356;52.380;9.820;2022-09-13T13:18:30;8.35;;;6.30;;
31786;SDS011;18356;52.380;9.820;2022-09-13T13:31:07;6.40;;;3.50;;
31786;SDS011;18356;52.380;9.820;2022-09-13T13:33:44;5.00;;;4.13;;
31786;SDS011;18356;52.380;9.820;2022-09-13T13:36:21;6.05;;;3.67;;
31786;SDS011;18356;52.380;9.820;2022-09-13T13:38:48;5.93;;;3.67;;
31786;SDS011;18356;52.380;9.820;2022-09-13T13:46:42;5.35;;;3.58;;
31786;SDS011;18356;52.380;9.820;2022-09-13T13:52:56;6.10;;;2.70;;
31786;SDS011;18356;52.380;9.820;2022-09-13T13:57:35;4.35;;;2.20;;
31786;SDS011;18356;52.380;9.820;2022-09-13T14:02:48;2.75;;;1.58;;
31786;SDS011;18356;52.380;9.820;2022-09-13T14:20:56;2.25;;;1.00;;
31786;SDS011;18356;52.380;9.820;2022-09-13T14:23:23;4.30;;;0.80;;
31786;SDS011;18356;52.380;9.820;2022-09-13T14:25:55;3.20;;;0.95;;
31786;SDS011;18356;52.380;9.820;2022-09-13T14:28:22;3.78;;;1.13;;
31786;SDS011;18356;52.380;9.820;2022-09-13T14:30:51;2.72;;;0.98;;
31786;SDS011;18356;52.380;9.820;2022-09-13T14:33:22;3.17;;;0.65;;
31786;SDS011;18356;52.380;9.820;2022-09-13T14:35:55;2.95;;;0.68;;
31786;SDS011;18356;52.380;9.820;2022-09-13T14:38:26;3.75;;;0.85;;
31786;SDS011;18356;52.380;9.820;2022-09-13T14:40:57;3.10;;;0.68;;
31786;SDS011;18356;52.380;9.820;2022-09-13T14:43:25;4.13;;;0.88;;
31786;SDS011;18356;52.380;9.820;2022-09-13T14:49:03;1.80;;;0.60;;
31786;SDS011;18356;52.380;9.820;2022-09-13T14:56:45;3.83;;;0.82;;
31786;SDS011;18356;52.380;9.820;2022-09-13T14:59:13;6.13;;;0.77;;
31786;SDS011;18356;52.380;9.820;2022-09-13T15:01:40;5.38;;;0.80;;
31786;SDS011;18356;52.380;9.820;2022-09-13T15:04:06;3.13;;;0.68;;
31786;SDS011;18356;52.380;9.820;2022-09-13T15:06:36;2.67;;;0.90;;
31786;SDS011;18356;52.380;9.820;2022-09-13T15:11:39;4.95;;;0.77;;
31786;SDS011;18356;52.380;9.820;2022-09-13T15:16:45;3.58;;;0.88;;
31786;SDS011;18356;52.380;9.820;2022-09-13T15:19:16;3.97;;;0.80;;
31786;SDS011;18356;52.380;9.820;2022-09-13T15:21:42;5.40;;;0.95;;
31786;SDS011;18356;52.380;9.820;2022-09-13T15:24:18;4.78;;;0.75;;
31786;SDS011;18356;52.380;9.820;2022-09-13T15:26:45;4.03;;;0.93;;
31786;SDS011;18356;52.380;9.820;2022-09-13T15:29:15;5.60;;;0.90;;
31786;SDS011;18356;52.380;9.820;2022-09-13T15:31:42;6.38;;;0.70;;
31786;SDS011;18356;52.380;9.820;2022-09-13T15:36:40;3.20;;;0.60;;
31786;SDS011;18356;52.380;9.820;2022-09-13T15:41:33;3.75;;;0.70;;
31786;SDS011;18356;52.380;9.820;2022-09-13T15:44:00;2.78;;;0.73;;
31786;SDS011;18356;52.380;9.820;2022-09-13T15:46:27;6.00;;;1.27;;
31786;SDS011;18356;52.380;9.820;2022-09-13T15:49:03;3.88;;;0.77;;
31786;SDS011;18356;52.380;9.820;2022-09-13T15:51:30;4.75;;;0.80;;
31786;SDS011;18356;52.380;9.820;2022-09-13T15:53:57;5.18;;;1.05;;
31786;SDS011;18356;52.380;9.820;2022-09-13T15:56:28;3.50;;;1.05;;
31786;SDS011;18356;52.380;9.820;2022-09-13T15:58:55;6.75;;;1.20;;
31786;SDS011;18356;52.380;9.820;2022-09-13T16:01:21;6.95;;;1.00;;
31786;SDS011;18356;52.380;9.820;2022-09-13T16:03:51;3.33;;;0.90;;
31786;SDS011;18356;52.380;9.820;2022-09-13T16:06:17;3.90;;;0.90;;
31786;SDS011;18356;52.380;9.820;2022-09-13T16:08:43;6.55;;;1.25;;
31786;SDS011;18356;52.380;9.820;2022-09-13T16:11:09;2.90;;;0.77;;
31786;SDS011;18356;52.380;9.820;2022-09-13T16:13:35;5.43;;;1.00;;
31786;SDS011;18356;52.380;9.820;2022-09-13T16:16:02;5.55;;;1.02;;
31786;SDS011;18356;52.380;9.820;2022-09-13T16:18:29;4.60;;;0.93;;
31786;SDS011;18356;52.380;9.820;2022-09-13T16:20:55;3.85;;;0.85;;
31786;SDS011;18356;52.380;9.820;2022-09-13T16:23:21;4.13;;;0.88;;
31786;SDS011;18356;52.380;9.820;2022-09-13T16:25:50;5.15;;;0.80;;
31786;SDS011;18356;52.380;9.820;2022-09-13T16:28:20;4.50;;;0.80;;
31786;SDS011;18356;52.380;9.820;2022-09-13T16:30:46;7.22;;;1.10;;
31786;SDS011;18356;52.380;9.820;2022-09-13T16:33:12;5.72;;;0.80;;
31786;SDS011;18356;52.380;9.820;2022-09-13T16:35:40;5.65;;;0.80;;
31786;SDS011;18356;52.380;9.820;2022-09-13T16:38:06;3.67;;;0.73;;
31786;SDS011;18356;52.380;9.820;2022-09-13T16:40:32;3.80;;;0.80;;
31786;SDS011;18356;52.380;9.820;2022-09-13T16:42:58;3.95;;;0.70;;
31786;SDS011;18356;52.380;9.820;2022-09-13T16:45:24;6.80;;;0.93;;
31786;SDS011;18356;52.380;9.820;2022-09-13T16:47:50;4.38;;;0.70;;
31786;SDS011;18356;52.380;9.820;2022-09-13T16:50:16;2.60;;;0.55;;
31786;SDS011;18356;52.380;9.820;2022-09-13T16:52:42;6.18;;;0.73;;
31786;SDS011;18356;52.380;9.820;2022-09-13T16:55:09;7.75;;;0.82;;
31786;SDS011;18356;52.380;9.820;2022-09-13T16:57:35;5.35;;;0.90;;
31786;SDS011;18356;52.380;9.820;2022-09-13T17:00:03;10.65;;;0.88;;
31786;SDS011;18356;52.380;9.820;2022-09-13T17:02:32;3.13;;;0.70;;
31786;SDS011;18356;52.380;9.820;2022-09-13T17:05:01;5.80;;;0.70;;
31786;SDS011;18356;52.380;9.820;2022-09-13T17:07:29;3.78;;;0.70;;
31786;SDS011;18356;52.380;9.820;2022-09-13T17:09:56;4.35;;;0.68;;
31786;SDS011;18356;52.380;9.820;2022-09-13T17:12:22;5.20;;;1.02;;
31786;SDS011;18356;52.380;9.820;2022-09-13T17:14:48;5.32;;;0.98;;
31786;SDS011;18356;52.380;9.820;2022-09-13T17:17:15;4.55;;;0.77;;
31786;SDS011;18356;52.380;9.820;2022-09-13T17:19:41;3.88;;;0.80;;
31786;SDS011;18356;52.380;9.820;2022-09-13T17:22:09;6.55;;;0.90;;
31786;SDS011;18356;52.380;9.820;2022-09-13T17:24:36;2.80;;;0.70;;
31786;SDS011;18356;52.380;9.820;2022-09-13T17:27:03;3.83;;;0.85;;
31786;SDS011;18356;52.380;9.820;2022-09-13T17:29:31;7.60;;;1.10;;
31786;SDS011;18356;52.380;9.820;2022-09-13T17:31:58;7.20;;;0.90;;
31786;SDS011;18356;52.380;9.820;2022-09-13T17:34:24;6.18;;;1.02;;
31786;SDS011;18356;52.380;9.820;2022-09-13T17:36:51;3.67;;;0.98;;
31786;SDS011;18356;52.380;9.820;2022-09-13T17:39:17;6.93;;;1.23;;
31786;SDS011;18356;52.380;9.820;2022-09-13T17:41:44;4.10;;;0.85;;
31786;SDS011;18356;52.380;9.820;2022-09-13T17:44:10;7.43;;;1.48;;
31786;SDS011;18356;52.380;9.820;2022-09-13T17:46:37;3.47;;;0.80;;
31786;SDS011;18356;52.380;9.820;2022-09-13T17:49:03;12.15;;;1.40;;
31786;SDS011;18356;52.380;9.820;2022-09-13T17:51:30;5.82;;;1.10;;
31786;SDS011;18356;52.380;9.820;2022-09-13T17:54:00;3.45;;;1.10;;
31786;SDS011;18356;52.380;9.820;2022-09-13T17:59:03;4.50;;;0.90;;
31786;SDS011;18356;52.380;9.820;2022-09-13T18:01:29;4.80;;;1.02;;